Dover, Kentucky
Current Conditions -  °F | °C
As of 7:35 AM on Friday 31 Oct 2014 (Local Time) from KFGX Reporting Station
Drizzle Drizzle  
Wind Chill: 40°   Ceiling: 4900
Heat Index: 40°   Visibility: 7mi
Dew Point: 38°   Wind: 0mph
Humidity: 95%   Direction: NA
Pressure: 30"   Gusts: NA
Location:  38.76°N, 83.88°W
Report Text: KFGX 311135Z AUTO 00000KT 7SM DZ SCT035 OVC049 04/04 A3000 RMK AO2 T00420035
Loading
Personal Weather Stations






























Interactive Weather Map New forecast layout! Learn more

10-Day Weather Forecast

Advertisements
Track Severe Weather on mobile